Time;durP1;ratioP1;P1;durP2;ratioP2;P2;SDS_P1;SDS_P2;PMS_P1;PMS_P2;Temp;Humidity;BMP_temperature;BMP_pressure;BME280_temperature;BME280_humidity;BME280_pressure;Samples;Min_cycle;Max_cycle;Signal;HPM_P1;HPM_P2
2024/02/26 00:01:41;;;;;;;0.30;0.20;;;12.20;99.90;;;;;;5066443;28;20181;-80
2024/02/26 00:04:06;;;;;;;2.05;1.95;;;12.20;99.90;;;;;;5066450;28;20955;-80
2024/02/26 00:06:32;;;;;;;0.30;0.20;;;12.20;99.90;;;;;;5066367;28;20230;-78
2024/02/26 00:08:58;;;;;;;0.30;0.20;;;12.20;99.90;;;;;;5066492;28;20888;-80
2024/02/26 00:11:24;;;;;;;6.93;6.53;;;12.20;99.90;;;;;;5066315;28;20461;-75
2024/02/26 00:13:50;;;;;;;0.30;0.20;;;12.20;99.90;;;;;;5066024;28;20540;-75
2024/02/26 00:16:15;;;;;;;0.30;0.20;;;12.20;99.90;;;;;;5065264;28;20213;-80
2024/02/26 00:18:41;;;;;;;0.30;0.23;;;12.20;99.90;;;;;;5065827;28;20250;-75
2024/02/26 00:21:07;;;;;;;0.30;0.20;;;12.10;99.90;;;;;;5065767;28;20169;-77
2024/02/26 00:23:32;;;;;;;0.50;0.50;;;12.10;99.90;;;;;;5066094;28;20196;-75
2024/02/26 00:25:58;;;;;;;0.57;0.57;;;12.10;99.90;;;;;;5064256;28;20188;-80
2024/02/26 00:28:24;;;;;;;0.40;0.30;;;12.10;99.90;;;;;;5066118;28;20212;-75
2024/02/26 00:30:55;;;;;;;0.30;0.20;;;12.10;99.90;;;;;;5063783;28;20266;-74
2024/02/26 00:33:21;;;;;;;0.33;0.33;;;12.10;99.90;;;;;;5064499;28;20448;-75
2024/02/26 00:35:47;;;;;;;0.60;0.60;;;12.10;99.90;;;;;;5065776;28;20402;-79
2024/02/26 00:38:13;;;;;;;0.30;0.20;;;12.10;99.90;;;;;;5065070;28;20189;-75
2024/02/26 00:40:38;;;;;;;4.77;4.43;;;12.10;99.90;;;;;;5064383;28;20433;-77
2024/02/26 00:43:04;;;;;;;0.73;0.73;;;12.10;99.90;;;;;;5065225;28;20284;-75
2024/02/26 00:45:31;;;;;;;0.50;0.50;;;12.10;99.90;;;;;;5065405;28;20173;-80
2024/02/26 00:47:57;;;;;;;3.40;3.30;;;12.10;99.90;;;;;;5065439;28;20204;-80
2024/02/26 00:50:23;;;;;;;15.90;1.85;;;12.10;99.90;;;;;;5064171;28;20219;-75
2024/02/26 00:52:49;;;;;;;0.30;0.20;;;12.10;99.90;;;;;;5064076;28;20197;-74
2024/02/26 00:55:14;;;;;;;0.30;0.20;;;12.10;99.90;;;;;;5065307;28;20299;-80
2024/02/26 00:57:40;;;;;;;1.33;1.23;;;12.10;99.90;;;;;;5065085;28;20235;-75
2024/02/26 01:00:08;;;;;;;0.83;0.83;;;12.10;99.90;;;;;;5064098;28;20268;-80
2024/02/26 01:02:34;;;;;;;4.90;1.77;;;12.10;99.90;;;;;;5063731;28;20203;-75
2024/02/26 01:05:00;;;;;;;3.73;3.60;;;12.20;99.90;;;;;;5065671;28;20165;-75
2024/02/26 01:07:26;;;;;;;1.07;1.03;;;12.20;99.90;;;;;;5064877;28;20479;-75
2024/02/26 01:09:51;;;;;;;2.00;1.90;;;12.20;99.90;;;;;;5064382;28;20571;-75
2024/02/26 01:12:17;;;;;;;0.70;0.70;;;12.20;99.90;;;;;;5065256;28;20173;-74
2024/02/26 01:14:42;;;;;;;11.53;10.53;;;12.20;99.90;;;;;;5065237;28;20173;-79
2024/02/26 01:17:08;;;;;;;3.67;3.57;;;12.20;99.90;;;;;;5064500;28;20173;-80
2024/02/26 01:19:34;;;;;;;3.93;3.70;;;12.20;99.90;;;;;;5065154;28;20281;-79
2024/02/26 01:22:00;;;;;;;0.73;0.73;;;12.10;99.90;;;;;;5064775;28;20574;-75
2024/02/26 01:24:25;;;;;;;1.53;1.23;;;12.10;99.90;;;;;;5065168;28;20351;-80
2024/02/26 01:26:51;;;;;;;0.30;0.30;;;12.10;99.90;;;;;;5063708;28;20406;-77
2024/02/26 01:29:17;;;;;;;0.50;0.50;;;12.20;99.90;;;;;;5065395;28;20224;-80
2024/02/26 01:31:42;;;;;;;0.30;0.30;;;12.10;99.90;;;;;;5065238;28;20173;-75
2024/02/26 01:34:08;;;;;;;0.40;0.40;;;12.10;99.90;;;;;;5064895;28;20242;-80
2024/02/26 01:36:34;;;;;;;0.30;0.20;;;12.10;99.90;;;;;;5064687;28;20165;-77
2024/02/26 01:39:00;;;;;;;0.67;0.67;;;12.20;99.90;;;;;;5063342;28;20197;-75
2024/02/26 01:41:25;;;;;;;0.30;0.20;;;12.20;99.90;;;;;;5063546;28;20571;-74
2024/02/26 01:43:51;;;;;;;0.67;0.67;;;12.20;99.90;;;;;;5069113;28;20644;-75
2024/02/26 01:46:18;;;;;;;1.90;1.80;;;12.20;99.90;;;;;;5069026;28;20302;-80
2024/02/26 01:48:45;;;;;;;0.30;0.20;;;12.20;99.90;;;;;;5069212;28;20445;-80
2024/02/26 01:51:14;;;;;;;0.30;0.20;;;12.20;99.90;;;;;;5067372;28;20725;-80
2024/02/26 01:53:40;;;;;;;6.95;6.55;;;12.20;99.90;;;;;;5069176;28;20758;-80
2024/02/26 01:56:06;;;;;;;1.80;1.70;;;12.20;99.90;;;;;;5068647;28;20185;-75
2024/02/26 01:58:33;;;;;;;3.25;3.03;;;12.20;99.90;;;;;;5067456;28;20481;-80
2024/02/26 02:00:59;;;;;;;0.30;0.30;;;12.20;99.90;;;;;;5067251;28;20189;-75
2024/02/26 02:03:25;;;;;;;0.45;0.45;;;12.20;99.90;;;;;;5067934;28;20231;-79
2024/02/26 02:05:51;;;;;;;0.90;0.87;;;12.20;99.90;;;;;;5067523;28;20193;-80
2024/02/26 02:08:16;;;;;;;0.30;0.30;;;12.20;99.90;;;;;;5067060;28;20950;-75
2024/02/26 02:10:43;;;;;;;2.83;2.63;;;12.30;99.90;;;;;;5068804;28;20255;-80
2024/02/26 02:13:08;;;;;;;0.40;0.20;;;12.30;99.90;;;;;;5068216;28;20212;-74
2024/02/26 02:15:34;;;;;;;0.40;0.30;;;12.30;99.90;;;;;;5068683;28;20623;-79
2024/02/26 02:18:00;;;;;;;0.30;0.20;;;12.30;99.90;;;;;;5067893;28;20483;-75
2024/02/26 02:20:35;;;;;;;0.30;0.20;;;12.30;99.90;;;;;;5066078;28;20416;-80
2024/02/26 02:23:01;;;;;;;0.60;0.53;;;12.30;99.90;;;;;;5068322;28;20460;-75
2024/02/26 02:25:26;;;;;;;0.30;0.20;;;12.40;99.90;;;;;;5068597;28;20402;-80
2024/02/26 02:27:54;;;;;;;0.57;0.57;;;12.40;99.90;;;;;;5066868;28;20444;-80
2024/02/26 02:30:21;;;;;;;0.30;0.20;;;12.40;99.90;;;;;;5068198;28;20213;-79
2024/02/26 02:32:47;;;;;;;0.37;0.37;;;12.40;99.90;;;;;;5067974;28;20437;-80
2024/02/26 02:35:13;;;;;;;0.30;0.20;;;12.50;99.90;;;;;;5066964;28;20420;-74
2024/02/26 02:37:38;;;;;;;0.30;0.20;;;12.50;99.90;;;;;;5066048;28;20563;-75
2024/02/26 02:40:05;;;;;;;0.30;0.20;;;12.50;99.90;;;;;;5066474;28;20192;-78
2024/02/26 02:42:31;;;;;;;0.50;0.50;;;12.40;99.90;;;;;;5067494;28;20169;-74
2024/02/26 02:44:56;;;;;;;0.30;0.20;;;12.40;99.90;;;;;;5067914;28;20410;-80
2024/02/26 02:47:22;;;;;;;0.53;0.53;;;12.40;99.90;;;;;;5066497;28;20422;-74
2024/02/26 02:49:48;;;;;;;0.63;0.60;;;12.40;99.90;;;;;;5067784;28;20216;-79
2024/02/26 02:52:13;;;;;;;0.83;0.83;;;12.30;99.90;;;;;;5067780;28;20247;-80
2024/02/26 02:54:41;;;;;;;0.30;0.20;;;12.40;99.90;;;;;;5067154;28;20185;-79
2024/02/26 02:57:08;;;;;;;0.40;0.30;;;12.40;99.90;;;;;;5067623;28;20409;-80
2024/02/26 02:59:33;;;;;;;0.30;0.20;;;12.40;99.90;;;;;;5067618;28;20437;-75
2024/02/26 03:01:59;;;;;;;0.30;0.30;;;12.40;99.90;;;;;;5066162;28;20418;-74
2024/02/26 03:04:25;;;;;;;0.67;0.67;;;12.40;99.90;;;;;;5067803;28;20201;-80
2024/02/26 03:06:50;;;;;;;5.10;2.73;;;12.50;99.90;;;;;;5067578;28;20849;-80
2024/02/26 03:09:16;;;;;;;0.43;0.40;;;12.50;99.90;;;;;;5067301;28;20240;-80
2024/02/26 03:11:42;;;;;;;1.50;1.50;;;12.50;99.90;;;;;;5067484;28;20186;-80
2024/02/26 03:14:08;;;;;;;0.80;0.80;;;12.50;99.90;;;;;;5066097;28;20704;-79
2024/02/26 03:16:34;;;;;;;0.40;0.40;;;12.50;99.90;;;;;;5067372;28;20588;-75
2024/02/26 03:18:59;;;;;;;1.07;1.07;;;12.50;99.90;;;;;;5066910;28;20536;-74
2024/02/26 03:21:25;;;;;;;0.50;0.50;;;12.50;99.90;;;;;;5065116;28;20181;-78
2024/02/26 03:23:51;;;;;;;1.17;1.17;;;12.50;99.90;;;;;;5067465;28;20192;-75
2024/02/26 03:26:17;;;;;;;0.30;0.27;;;12.50;99.90;;;;;;5065627;28;20393;-75
2024/02/26 03:28:42;;;;;;;1.67;1.57;;;12.50;99.90;;;;;;5065878;28;20193;-78
2024/02/26 03:31:08;;;;;;;1.23;1.23;;;12.60;99.90;;;;;;5066698;28;20262;-75
2024/02/26 03:33:34;;;;;;;0.30;0.20;;;12.60;99.90;;;;;;5066972;28;20731;-80
2024/02/26 03:36:00;;;;;;;0.30;0.20;;;12.60;99.90;;;;;;5066686;28;20182;-75
2024/02/26 03:38:25;;;;;;;0.30;0.30;;;12.60;99.90;;;;;;5066862;28;20934;-75
2024/02/26 03:40:51;;;;;;;0.30;0.20;;;12.60;99.90;;;;;;5066445;28;20273;-74
2024/02/26 03:43:17;;;;;;;0.30;0.20;;;12.60;99.90;;;;;;5066542;28;20482;-75
2024/02/26 03:45:43;;;;;;;0.30;0.20;;;12.60;99.90;;;;;;5066739;28;20420;-80
2024/02/26 03:48:08;;;;;;;0.30;0.20;;;12.50;99.90;;;;;;5066543;28;20434;-80
2024/02/26 03:50:34;;;;;;;7.53;2.77;;;12.50;99.90;;;;;;5065174;28;20221;-80
2024/02/26 03:53:00;;;;;;;1.33;1.23;;;12.50;99.90;;;;;;5066679;28;20197;-80
2024/02/26 03:55:26;;;;;;;0.60;0.60;;;12.40;99.90;;;;;;5066895;28;20496;-75
2024/02/26 03:57:52;;;;;;;0.30;0.20;;;12.40;99.90;;;;;;5064775;28;20189;-75
2024/02/26 04:00:18;;;;;;;0.30;0.20;;;12.50;99.90;;;;;;5066219;28;20207;-80
2024/02/26 04:02:44;;;;;;;1.53;1.47;;;12.50;99.90;;;;;;5064768;28;20450;-75
2024/02/26 04:05:11;;;;;;;2.13;1.93;;;12.50;99.90;;;;;;5064728;28;20812;-80
2024/02/26 04:07:37;;;;;;;0.70;0.70;;;12.50;99.90;;;;;;5064526;28;20976;-75
2024/02/26 04:10:06;;;;;;;0.30;0.20;;;12.50;99.90;;;;;;5066299;28;20458;-75
2024/02/26 04:12:31;;;;;;;0.30;0.20;;;12.40;99.90;;;;;;5066104;28;20548;-75
2024/02/26 04:14:57;;;;;;;4.43;4.07;;;12.40;99.90;;;;;;5066104;28;20497;-76
2024/02/26 04:17:22;;;;;;;0.53;0.53;;;12.40;99.90;;;;;;5064672;28;20545;-75
2024/02/26 04:19:48;;;;;;;0.30;0.20;;;12.30;99.90;;;;;;5065964;28;20185;-75
2024/02/26 04:22:14;;;;;;;0.30;0.20;;;12.30;99.90;;;;;;5064185;28;20181;-75
2024/02/26 04:24:39;;;;;;;0.30;0.20;;;12.30;99.90;;;;;;5065129;28;20181;-80
2024/02/26 04:27:05;;;;;;;0.30;0.20;;;12.30;99.90;;;;;;5065842;28;20425;-75
2024/02/26 04:29:31;;;;;;;0.30;0.20;;;12.20;99.90;;;;;;5065909;28;20220;-80
2024/02/26 04:31:56;;;;;;;0.30;0.20;;;12.20;99.90;;;;;;5065921;28;20195;-77
2024/02/26 04:34:22;;;;;;;2.87;2.77;;;12.10;99.90;;;;;;5064538;28;20717;-75
2024/02/26 04:36:48;;;;;;;0.30;0.20;;;12.10;99.90;;;;;;5065472;28;20192;-80
2024/02/26 04:39:13;;;;;;;0.73;0.73;;;12.10;99.90;;;;;;5065716;28;20204;-80
2024/02/26 04:41:39;;;;;;;0.30;0.20;;;12.10;99.90;;;;;;5065088;28;20173;-75
2024/02/26 04:44:05;;;;;;;0.30;0.20;;;12.00;99.90;;;;;;5064216;28;20498;-80
2024/02/26 04:46:31;;;;;;;0.63;0.63;;;11.90;99.90;;;;;;5063953;28;20188;-79
2024/02/26 04:48:57;;;;;;;0.33;0.30;;;11.90;99.90;;;;;;5064300;28;20677;-80
2024/02/26 04:51:22;;;;;;;0.30;0.20;;;11.90;99.90;;;;;;5065324;28;20193;-75
2024/02/26 04:53:48;;;;;;;0.33;0.30;;;11.90;99.90;;;;;;5065341;28;20200;-75
2024/02/26 04:56:14;;;;;;;0.30;0.27;;;11.90;99.90;;;;;;5065115;28;20214;-75
2024/02/26 04:58:39;;;;;;;0.30;0.30;;;11.90;99.90;;;;;;5063470;28;20434;-81
2024/02/26 05:01:06;;;;;;;0.30;0.20;;;11.90;99.90;;;;;;5063910;28;20181;-81
2024/02/26 05:03:31;;;;;;;0.30;0.20;;;11.80;99.90;;;;;;5064533;28;20242;-81
2024/02/26 05:05:58;;;;;;;0.30;0.20;;;11.80;99.90;;;;;;5069579;28;20212;-75
2024/02/26 05:08:23;;;;;;;1.00;1.00;;;11.80;99.90;;;;;;5064937;28;20232;-81
2024/02/26 05:10:49;;;;;;;0.40;0.33;;;11.80;99.90;;;;;;5070163;28;20204;-75
2024/02/26 05:13:17;;;;;;;1.93;1.87;;;11.70;99.90;;;;;;5085221;28;20801;-81
2024/02/26 05:15:43;;;;;;;0.60;0.60;;;11.70;99.90;;;;;;5083913;28;20249;-75
2024/02/26 05:18:09;;;;;;;0.30;0.20;;;11.60;99.90;;;;;;5072293;28;20280;-81
2024/02/26 05:20:35;;;;;;;0.30;0.20;;;11.60;99.90;;;;;;5064955;28;20922;-79
2024/02/26 05:23:01;;;;;;;0.30;0.20;;;11.60;99.90;;;;;;5062754;28;20602;-75
2024/02/26 05:25:27;;;;;;;0.30;0.30;;;11.60;99.90;;;;;;5068450;28;20202;-81
2024/02/26 05:27:53;;;;;;;0.30;0.20;;;11.50;99.90;;;;;;5069984;28;20433;-81
2024/02/26 05:30:18;;;;;;;0.50;0.47;;;11.50;99.90;;;;;;5078934;28;20207;-78
2024/02/26 05:32:44;;;;;;;0.30;0.20;;;11.50;99.90;;;;;;5074249;28;20208;-75
2024/02/26 05:35:10;;;;;;;0.30;0.20;;;11.50;99.90;;;;;;5080625;28;20433;-75
2024/02/26 05:37:36;;;;;;;0.30;0.20;;;11.50;99.90;;;;;;5084235;28;20223;-75
2024/02/26 05:40:04;;;;;;;0.30;0.20;;;11.40;99.90;;;;;;5075223;28;20607;-75
2024/02/26 05:42:30;;;;;;;0.40;0.40;;;11.40;99.90;;;;;;5078240;28;20521;-75
2024/02/26 05:44:56;;;;;;;4.53;4.13;;;11.40;99.90;;;;;;5070487;28;20379;-81
2024/02/26 05:47:21;;;;;;;0.30;0.20;;;11.40;99.90;;;;;;5072741;28;20233;-81
2024/02/26 05:49:47;;;;;;;0.30;0.20;;;11.40;99.90;;;;;;5073841;28;20805;-81
2024/02/26 05:52:12;;;;;;;0.30;0.20;;;11.30;99.90;;;;;;5073030;28;20180;-75
2024/02/26 05:54:38;;;;;;;0.30;0.20;;;11.30;99.90;;;;;;5074030;28;20630;-81
2024/02/26 05:57:04;;;;;;;4.33;4.23;;;11.30;99.90;;;;;;5077049;28;20169;-79
2024/02/26 05:59:30;;;;;;;1.70;1.60;;;11.30;99.90;;;;;;5068153;28;21018;-79
2024/02/26 06:01:56;;;;;;;0.30;0.20;;;11.40;99.90;;;;;;5070615;28;20239;-79
2024/02/26 06:04:21;;;;;;;0.30;0.20;;;11.40;99.90;;;;;;5075866;28;20279;-75
2024/02/26 06:06:47;;;;;;;0.40;0.30;;;11.50;99.90;;;;;;5073390;28;20283;-79
2024/02/26 06:09:12;;;;;;;0.30;0.30;;;11.60;99.90;;;;;;5075402;28;20593;-80
2024/02/26 06:11:38;;;;;;;3.90;3.70;;;11.70;99.90;;;;;;5072108;28;20533;-75
2024/02/26 06:14:04;;;;;;;0.30;0.20;;;11.70;99.90;;;;;;5072977;28;20826;-78
2024/02/26 06:16:30;;;;;;;0.38;0.28;;;11.70;99.90;;;;;;5076143;28;20421;-78
2024/02/26 06:18:56;;;;;;;0.30;0.30;;;11.80;99.90;;;;;;5074341;28;20213;-78
2024/02/26 06:21:22;;;;;;;0.30;0.20;;;11.80;99.90;;;;;;5084148;28;20694;-78
2024/02/26 06:23:49;;;;;;;0.57;0.57;;;11.80;99.90;;;;;;5083371;28;20224;-78
2024/02/26 06:26:14;;;;;;;0.30;0.20;;;11.80;99.90;;;;;;5081894;28;20433;-78
2024/02/26 06:28:40;;;;;;;0.30;0.20;;;11.70;99.90;;;;;;5078840;28;20558;-78
2024/02/26 06:31:06;;;;;;;0.30;0.20;;;11.70;99.90;;;;;;5075533;28;20844;-78
2024/02/26 06:33:32;;;;;;;1.55;1.55;;;11.70;99.90;;;;;;5077556;28;20742;-78
2024/02/26 06:35:58;;;;;;;0.60;0.60;;;11.80;99.90;;;;;;5081382;28;20302;-78
2024/02/26 06:38:24;;;;;;;0.30;0.20;;;11.80;99.90;;;;;;5080710;28;21179;-77
2024/02/26 06:40:49;;;;;;;1.10;1.03;;;11.80;99.90;;;;;;5082894;28;20188;-78
2024/02/26 06:43:15;;;;;;;0.30;0.20;;;11.80;99.90;;;;;;5084806;28;20201;-78
2024/02/26 06:45:41;;;;;;;0.30;0.20;;;11.80;99.90;;;;;;5093009;28;20184;-78
2024/02/26 06:48:07;;;;;;;1.43;1.43;;;11.90;99.90;;;;;;5081712;28;20212;-78
2024/02/26 06:50:33;;;;;;;0.30;0.20;;;11.80;99.90;;;;;;5079238;28;20447;-78
2024/02/26 06:52:59;;;;;;;0.30;0.20;;;11.80;99.90;;;;;;5078816;28;20502;-78
2024/02/26 06:55:24;;;;;;;0.70;0.70;;;11.80;99.90;;;;;;5081870;28;20496;-78
2024/02/26 06:57:50;;;;;;;0.30;0.20;;;11.80;99.90;;;;;;5082404;28;20492;-78
2024/02/26 07:00:16;;;;;;;0.30;0.20;;;11.80;99.90;;;;;;5082719;28;20356;-78
2024/02/26 07:02:43;;;;;;;0.30;0.20;;;11.80;99.90;;;;;;5076093;28;20442;-78
2024/02/26 07:05:09;;;;;;;0.85;0.80;;;11.80;99.90;;;;;;5075294;28;20390;-78
2024/02/26 07:07:35;;;;;;;1.10;1.10;;;11.70;99.90;;;;;;5079387;28;20247;-78
2024/02/26 07:10:03;;;;;;;0.30;0.20;;;11.70;99.90;;;;;;5078819;28;20856;-78
2024/02/26 07:12:29;;;;;;;0.30;0.20;;;11.70;99.90;;;;;;5074505;28;20177;-78
2024/02/26 07:14:55;;;;;;;0.30;0.20;;;11.70;99.90;;;;;;5072771;28;20837;-78
2024/02/26 07:17:21;;;;;;;0.40;0.30;;;11.80;99.90;;;;;;5075770;28;20522;-79
2024/02/26 07:19:46;;;;;;;0.30;0.20;;;11.80;99.90;;;;;;5072701;28;20177;-78
2024/02/26 07:22:12;;;;;;;0.30;0.20;;;11.80;99.90;;;;;;5073121;28;20911;-79
2024/02/26 07:24:37;;;;;;;0.30;0.20;;;11.80;99.90;;;;;;5076477;28;20192;-78
2024/02/26 07:27:03;;;;;;;0.30;0.20;;;11.90;99.90;;;;;;5073787;28;20647;-78
2024/02/26 07:29:29;;;;;;;8.13;3.30;;;11.90;99.90;;;;;;5082439;28;20262;-78
2024/02/26 07:31:55;;;;;;;0.40;0.30;;;12.00;99.90;;;;;;5082074;28;20868;-78
2024/02/26 07:34:27;;;;;;;0.30;0.20;;;12.00;99.90;;;;;;5084825;28;20682;-78
2024/02/26 07:36:53;;;;;;;0.40;0.30;;;12.00;99.90;;;;;;5081909;28;20702;-78
2024/02/26 07:39:19;;;;;;;0.85;0.85;;;12.10;99.90;;;;;;5068328;28;21009;-78
2024/02/26 07:41:46;;;;;;;2.20;2.10;;;12.20;99.90;;;;;;5072909;28;20173;-78
2024/02/26 07:44:12;;;;;;;0.30;0.30;;;12.20;99.90;;;;;;5083332;28;20208;-79
2024/02/26 07:46:38;;;;;;;0.30;0.30;;;12.20;99.90;;;;;;5081630;28;20401;-79
2024/02/26 07:49:04;;;;;;;0.30;0.20;;;12.40;99.90;;;;;;5075887;28;20275;-78
2024/02/26 07:51:29;;;;;;;0.50;0.50;;;12.40;99.90;;;;;;5083675;28;20464;-78
2024/02/26 07:53:55;;;;;;;0.40;0.40;;;12.50;99.90;;;;;;5082347;28;20232;-78
2024/02/26 07:56:21;;;;;;;0.30;0.30;;;12.60;99.90;;;;;;5083152;28;20192;-79
2024/02/26 07:58:47;;;;;;;2.73;2.60;;;12.70;99.90;;;;;;5077328;28;20219;-79
2024/02/26 08:01:14;;;;;;;0.50;0.50;;;12.80;99.90;;;;;;5082415;28;20564;-79
2024/02/26 08:03:40;;;;;;;0.37;0.20;;;13.10;99.90;;;;;;5082582;28;20441;-79
2024/02/26 08:06:07;;;;;;;1.67;1.57;;;13.30;99.90;;;;;;5074588;28;20413;-79
2024/02/26 08:08:33;;;;;;;0.30;0.30;;;13.60;99.90;;;;;;5079641;28;20259;-79
2024/02/26 08:10:59;;;;;;;1.57;1.47;;;13.80;99.90;;;;;;5069009;28;20756;-79
2024/02/26 08:13:27;;;;;;;0.80;0.80;;;14.20;99.90;;;;;;5075846;28;20208;-80
2024/02/26 08:15:53;;;;;;;0.50;0.50;;;14.60;99.90;;;;;;5082702;28;20525;-79
2024/02/26 08:18:19;;;;;;;0.30;0.30;;;15.10;99.90;;;;;;5074192;28;20543;-80
2024/02/26 08:20:45;;;;;;;0.83;0.77;;;15.60;99.90;;;;;;5070730;28;20844;-79
2024/02/26 08:23:11;;;;;;;2.30;2.20;;;16.10;99.90;;;;;;5079613;28;20466;-79
2024/02/26 08:25:37;;;;;;;1.93;1.83;;;16.50;99.90;;;;;;5076369;28;20588;-79
2024/02/26 08:28:03;;;;;;;0.30;0.20;;;16.40;99.90;;;;;;5073975;28;21081;-79
2024/02/26 08:30:28;;;;;;;2.57;1.73;;;16.20;99.90;;;;;;5071801;28;20486;-78
2024/02/26 08:32:57;;;;;;;0.40;0.20;;;16.10;99.90;;;;;;5075641;28;20656;-79
2024/02/26 08:35:22;;;;;;;0.30;0.20;;;15.90;99.90;;;;;;5065841;28;20204;-79
2024/02/26 08:37:48;;;;;;;0.30;0.20;;;15.80;99.90;;;;;;5073830;28;21011;-79
2024/02/26 08:40:14;;;;;;;2.93;2.77;;;15.70;99.90;;;;;;5076384;28;20180;-79
2024/02/26 08:42:40;;;;;;;4.33;4.13;;;15.70;99.90;;;;;;5078705;28;20205;-79
2024/02/26 08:45:07;;;;;;;2.00;1.90;;;16.00;99.90;;;;;;5095324;28;20429;-79
2024/02/26 08:47:32;;;;;;;0.50;0.50;;;16.10;99.90;;;;;;5077500;28;20214;-79
2024/02/26 08:49:58;;;;;;;0.97;0.97;;;16.10;99.90;;;;;;5081646;28;20476;-80
2024/02/26 08:52:24;;;;;;;1.67;1.57;;;16.40;99.90;;;;;;5078221;28;20235;-78
2024/02/26 08:54:50;;;;;;;0.50;0.50;;;17.00;99.90;;;;;;5074385;28;20171;-79
2024/02/26 08:57:16;;;;;;;2.23;1.80;;;17.80;99.90;;;;;;5065634;28;20489;-79
2024/02/26 08:59:41;;;;;;;0.40;0.40;;;18.60;99.90;;;;;;5072319;28;20314;-78
2024/02/26 09:02:11;;;;;;;0.33;0.20;;;19.00;99.90;;;;;;5070700;28;21044;-79
2024/02/26 09:04:36;;;;;;;1.80;1.70;;;19.50;99.90;;;;;;5073478;28;20195;-80
2024/02/26 09:07:02;;;;;;;2.20;2.10;;;19.80;99.90;;;;;;5070971;28;20485;-78
2024/02/26 09:09:28;;;;;;;0.43;0.43;;;20.20;99.90;;;;;;5066612;28;20446;-79
2024/02/26 09:11:55;;;;;;;1.90;1.53;;;20.30;99.90;;;;;;5068392;28;20472;-79
2024/02/26 09:14:21;;;;;;;0.50;0.50;;;20.20;99.90;;;;;;5080521;28;20538;-79
2024/02/26 09:16:51;;;;;;;0.40;0.20;;;20.10;99.90;;;;;;5078823;28;20234;-79
2024/02/26 09:19:17;;;;;;;0.60;0.60;;;20.00;99.90;;;;;;5077655;28;20871;-79
2024/02/26 09:21:44;;;;;;;0.33;0.30;;;20.00;99.90;;;;;;5073903;28;20566;-80
2024/02/26 09:24:10;;;;;;;1.17;0.93;;;20.30;99.90;;;;;;5072704;28;20227;-79
2024/02/26 09:26:36;;;;;;;0.80;0.80;;;20.60;99.90;;;;;;5091740;28;20604;-79
2024/02/26 09:29:02;;;;;;;0.30;0.20;;;20.80;99.90;;;;;;5077425;28;20619;-79
2024/02/26 09:31:27;;;;;;;0.40;0.30;;;20.90;99.90;;;;;;5075954;28;20593;-79
2024/02/26 09:33:53;;;;;;;0.87;0.87;;;21.10;99.90;;;;;;5077915;28;20450;-79
2024/02/26 09:36:18;;;;;;;0.40;0.40;;;21.30;99.90;;;;;;5078458;28;20177;-79
2024/02/26 09:38:44;;;;;;;2.10;1.90;;;21.20;99.90;;;;;;5068809;28;20609;-79
2024/02/26 09:41:16;;;;;;;0.30;0.20;;;21.00;99.90;;;;;;5092510;28;20180;-79
2024/02/26 09:43:44;;;;;;;2.10;2.00;;;20.80;99.90;;;;;;5076089;28;20364;-79
2024/02/26 09:46:10;;;;;;;0.40;0.30;;;20.50;99.90;;;;;;5066397;28;20796;-78
2024/02/26 09:48:37;;;;;;;2.30;2.20;;;20.50;99.90;;;;;;5066115;28;20461;-79
2024/02/26 09:51:04;;;;;;;0.70;0.67;;;20.70;99.90;;;;;;5066342;28;20408;-79
2024/02/26 09:53:35;;;;;;;0.60;0.60;;;20.80;99.90;;;;;;5069045;28;20441;-79
2024/02/26 09:56:01;;;;;;;0.97;0.97;;;20.80;99.90;;;;;;5069916;28;20450;-79
2024/02/26 09:58:28;;;;;;;1.87;1.77;;;20.70;99.90;;;;;;5072056;28;20446;-79
2024/02/26 10:00:58;;;;;;;0.63;0.63;;;20.60;99.90;;;;;;5067554;28;20466;-79
2024/02/26 10:03:34;;;;;;;0.73;0.73;;;20.70;99.90;;;;;;5075870;28;20510;-79
2024/02/26 10:06:02;;;;;;;0.30;0.20;;;20.70;99.90;;;;;;5078386;28;20836;-79
2024/02/26 10:08:29;;;;;;;1.47;1.33;;;20.80;99.90;;;;;;5075044;28;20480;-79
2024/02/26 10:10:55;;;;;;;1.53;1.43;;;21.00;99.90;;;;;;5078838;28;20587;-79
2024/02/26 10:13:21;;;;;;;2.87;2.00;;;20.90;99.90;;;;;;5077781;28;20444;-79
2024/02/26 10:15:46;;;;;;;0.43;0.43;;;20.40;99.90;;;;;;5079398;28;20941;-79
2024/02/26 10:18:12;;;;;;;0.80;0.80;;;20.10;99.90;;;;;;5070755;28;20707;-79
2024/02/26 10:20:38;;;;;;;0.30;0.30;;;19.90;99.90;;;;;;5077005;28;20311;-79
2024/02/26 10:23:04;;;;;;;0.90;0.90;;;19.90;99.90;;;;;;5076250;28;20744;-79
2024/02/26 10:25:31;;;;;;;0.60;0.50;;;19.90;99.90;;;;;;5076905;28;20180;-79
2024/02/26 10:28:03;;;;;;;0.50;0.50;;;19.80;99.90;;;;;;5079174;28;20543;-79
2024/02/26 10:30:30;;;;;;;0.40;0.40;;;19.50;99.90;;;;;;5082727;28;20601;-78
2024/02/26 10:32:56;;;;;;;4.93;4.73;;;19.40;99.90;;;;;;5080521;28;20425;-78
2024/02/26 10:35:22;;;;;;;0.53;0.53;;;19.40;99.90;;;;;;5081352;28;20424;-78
2024/02/26 10:37:51;;;;;;;2.30;0.80;;;19.30;99.90;;;;;;5083098;28;20441;-78
2024/02/26 10:40:17;;;;;;;0.40;0.20;;;19.30;99.90;;;;;;5080375;28;20594;-79
2024/02/26 10:42:43;;;;;;;1.80;1.70;;;19.40;99.90;;;;;;5073718;28;20869;-78
2024/02/26 10:45:09;;;;;;;0.97;0.97;;;19.50;99.90;;;;;;5080526;28;20188;-79
2024/02/26 10:47:41;;;;;;;0.60;0.60;;;19.60;99.90;;;;;;5083000;28;20444;-79
2024/02/26 10:50:07;;;;;;;0.30;0.20;;;19.60;99.90;;;;;;5076237;28;20464;-79
2024/02/26 10:52:34;;;;;;;0.40;0.40;;;19.60;99.90;;;;;;5079593;28;20555;-79
2024/02/26 10:55:06;;;;;;;0.30;0.30;;;19.60;99.90;;;;;;5080947;28;20663;-78
2024/02/26 10:57:39;;;;;;;0.30;0.20;;;19.60;99.90;;;;;;5078557;28;20610;-79
2024/02/26 11:00:06;;;;;;;0.60;0.60;;;19.80;99.90;;;;;;5077264;28;20429;-79
2024/02/26 11:02:36;;;;;;;0.30;0.20;;;19.90;99.90;;;;;;5062160;28;21037;-78
2024/02/26 11:05:06;;;;;;;3.13;1.37;;;20.00;99.90;;;;;;5075499;28;21052;-79
2024/02/26 11:07:34;;;;;;;0.30;0.30;;;20.00;99.90;;;;;;5079540;28;21123;-79
2024/02/26 11:10:00;;;;;;;2.40;1.80;;;20.10;99.90;;;;;;5085366;28;20472;-79
2024/02/26 11:12:28;;;;;;;3.60;1.90;;;20.00;99.90;;;;;;5073456;28;20977;-79
2024/02/26 11:14:56;;;;;;;0.87;0.87;;;19.90;99.90;;;;;;5077588;28;20697;-79
2024/02/26 11:17:25;;;;;;;1.60;1.50;;;19.90;99.90;;;;;;5064727;28;20417;-78
2024/02/26 11:19:53;;;;;;;0.30;0.20;;;20.00;99.90;;;;;;5075167;28;20516;-79
2024/02/26 11:22:21;;;;;;;0.60;0.60;;;20.00;99.90;;;;;;5079043;28;20513;-79
2024/02/26 11:24:48;;;;;;;0.40;0.40;;;19.80;99.90;;;;;;5080742;28;20486;-79
2024/02/26 11:27:17;;;;;;;3.83;0.67;;;19.80;99.90;;;;;;5079926;28;20919;-79
2024/02/26 11:29:49;;;;;;;0.30;0.20;;;19.80;99.90;;;;;;5074834;28;20946;-79
2024/02/26 11:32:15;;;;;;;0.30;0.20;;;19.90;99.90;;;;;;5068130;28;20398;-79
2024/02/26 11:34:42;;;;;;;0.67;0.67;;;20.00;99.90;;;;;;5072923;28;20515;-80
2024/02/26 11:37:15;;;;;;;0.30;0.20;;;20.10;99.90;;;;;;5075015;28;20939;-79
2024/02/26 11:39:41;;;;;;;0.30;0.20;;;20.10;99.90;;;;;;5071536;28;20510;-79
2024/02/26 11:42:14;;;;;;;0.30;0.20;;;20.20;99.90;;;;;;5065890;28;20497;-80
2024/02/26 11:44:41;;;;;;;0.30;0.20;;;20.20;99.90;;;;;;5073684;28;20893;-80
2024/02/26 11:47:12;;;;;;;0.30;0.20;;;20.00;99.90;;;;;;5078501;28;20440;-80
2024/02/26 11:49:38;;;;;;;0.30;0.20;;;19.90;99.90;;;;;;5080068;28;20735;-80
2024/02/26 11:52:08;;;;;;;0.30;0.20;;;19.80;99.90;;;;;;5066543;28;20443;-79
2024/02/26 11:55:00;;;;;;;0.30;0.20;;;19.70;99.90;;;;;;5070133;28;20285;-80
2024/02/26 11:57:37;;;;;;;1.80;1.40;;;19.70;99.90;;;;;;5066077;28;20743;-80
2024/02/26 12:00:06;;;;;;;0.50;0.50;;;19.60;99.90;;;;;;5075765;28;20436;-80
2024/02/26 12:02:45;;;;;;;0.87;0.80;;;19.60;99.90;;;;;;5081049;28;20432;-80
2024/02/26 12:05:23;;;;;;;0.30;0.20;;;19.60;99.90;;;;;;5074119;28;21067;-80
2024/02/26 12:07:53;;;;;;;0.53;0.53;;;19.70;99.90;;;;;;5072211;28;20465;-79
2024/02/26 12:10:28;;;;;;;0.30;0.20;;;19.70;99.90;;;;;;5073145;28;21057;-80
2024/02/26 12:12:58;;;;;;;0.67;0.67;;;19.80;99.90;;;;;;5073560;28;20452;-80
2024/02/26 12:15:26;;;;;;;1.13;1.03;;;19.70;99.90;;;;;;5073161;28;20465;-79
2024/02/26 12:17:52;;;;;;;0.30;0.20;;;19.60;99.90;;;;;;5074622;28;20452;-80
2024/02/26 12:20:19;;;;;;;1.00;0.83;;;19.60;99.90;;;;;;5075807;28;20437;-80
2024/02/26 12:22:48;;;;;;;0.73;0.73;;;19.50;99.90;;;;;;5068518;28;20766;-80
2024/02/26 12:25:14;;;;;;;0.30;0.30;;;19.50;99.90;;;;;;5065721;28;20471;-80
2024/02/26 12:27:40;;;;;;;0.30;0.20;;;19.50;99.90;;;;;;5056029;28;20456;-80
2024/02/26 12:30:07;;;;;;;0.30;0.30;;;19.50;99.90;;;;;;5063730;28;20449;-79
2024/02/26 12:32:33;;;;;;;0.53;0.50;;;19.50;99.90;;;;;;5066213;28;20247;-79
2024/02/26 12:34:59;;;;;;;1.40;0.87;;;19.40;99.90;;;;;;5072002;28;21221;-79
2024/02/26 12:37:27;;;;;;;0.73;0.73;;;19.40;99.90;;;;;;5063124;28;20441;-80
2024/02/26 12:39:52;;;;;;;0.30;0.23;;;19.30;99.90;;;;;;5075291;28;20581;-80
2024/02/26 12:42:18;;;;;;;0.40;0.40;;;19.20;99.90;;;;;;5070738;28;20429;-80